createdAt,value
2022-10-25T00:00:59.413Z,957.75
2022-10-25T00:03:58.313Z,957.69
2022-10-25T00:06:58.419Z,957.76
2022-10-25T00:09:58.847Z,957.62
2022-10-25T00:12:58.247Z,957.67
2022-10-25T00:15:58.405Z,957.72
2022-10-25T00:18:58.751Z,957.65
2022-10-25T00:21:58.717Z,957.77
2022-10-25T00:24:59.177Z,957.64
2022-10-25T00:27:59.041Z,957.63
2022-10-25T00:30:59.166Z,957.59
2022-10-25T00:33:58.801Z,957.52
2022-10-25T00:36:58.406Z,957.61
2022-10-25T00:39:58.847Z,957.62
2022-10-25T00:42:58.825Z,957.55
2022-10-25T00:45:58.840Z,957.58
2022-10-25T00:48:58.945Z,957.62
2022-10-25T00:51:59.292Z,957.58
2022-10-25T00:54:58.245Z,957.58
2022-10-25T00:57:58.884Z,957.71
2022-10-25T01:00:58.582Z,957.71
2022-10-25T01:03:59.099Z,957.65
2022-10-25T01:06:58.358Z,957.64
2022-10-25T01:09:58.419Z,957.65
2022-10-25T01:12:59.497Z,957.64
2022-10-25T01:15:58.539Z,957.65
2022-10-25T01:18:59.230Z,957.75
2022-10-25T01:21:59.141Z,957.68
2022-10-25T01:24:59.151Z,957.65
2022-10-25T01:27:58.302Z,957.58
2022-10-25T01:31:00.056Z,957.56
2022-10-25T01:33:59.215Z,957.51
2022-10-25T01:36:58.218Z,957.43
2022-10-25T01:39:58.466Z,957.41
2022-10-25T01:42:58.250Z,957.46
2022-10-25T01:45:58.872Z,957.49
2022-10-25T01:48:59.352Z,957.55
2022-10-25T01:52:01.402Z,957.52
2022-10-25T01:54:59.413Z,957.61
2022-10-25T01:57:58.796Z,957.48
2022-10-25T02:00:58.890Z,957.48
2022-10-25T02:03:58.565Z,957.58
2022-10-25T02:06:58.641Z,957.51
2022-10-25T02:09:59.099Z,957.45
2022-10-25T02:12:58.712Z,957.43
2022-10-25T02:15:59.545Z,957.51
2022-10-25T02:18:58.651Z,957.58
2022-10-25T02:21:59.523Z,957.48
2022-10-25T02:24:58.921Z,957.46
2022-10-25T02:27:59.333Z,957.45
2022-10-25T02:30:59.389Z,957.49
2022-10-25T02:33:59.250Z,957.38
2022-10-25T02:36:59.235Z,957.51
2022-10-25T02:39:59.191Z,957.38
2022-10-25T02:46:00.983Z,957.51
2022-10-25T02:48:58.769Z,957.56
2022-10-25T02:51:59.018Z,957.46
2022-10-25T02:54:58.895Z,957.51
2022-10-25T02:57:58.846Z,957.62
2022-10-25T03:00:58.616Z,957.56
2022-10-25T03:03:58.256Z,957.65
2022-10-25T03:06:58.978Z,957.61
2022-10-25T03:09:58.910Z,957.61
2022-10-25T03:12:59.035Z,957.51
2022-10-25T03:15:58.987Z,957.48
2022-10-25T03:18:59.486Z,957.47
2022-10-25T03:21:59.576Z,957.54
2022-10-25T03:24:58.991Z,957.52
2022-10-25T03:27:59.392Z,957.48
2022-10-25T03:30:59.416Z,957.51
2022-10-25T03:33:59.190Z,957.61
2022-10-25T03:36:58.975Z,957.55
2022-10-25T03:39:58.533Z,957.51
2022-10-25T03:42:59.212Z,957.64
2022-10-25T03:46:00.384Z,957.51
2022-10-25T03:48:59.035Z,957.54
2022-10-25T03:52:01.332Z,957.67
2022-10-25T03:54:59.081Z,957.6
2022-10-25T03:57:59.110Z,957.6
2022-10-25T04:00:59.432Z,957.72
2022-10-25T04:03:58.971Z,957.74
2022-10-25T04:06:59.040Z,957.79
2022-10-25T04:09:59.020Z,957.68
2022-10-25T04:12:59.174Z,957.74
2022-10-25T04:15:59.022Z,957.73
2022-10-25T04:18:59.470Z,957.7
2022-10-25T04:21:58.790Z,957.63
2022-10-25T04:24:58.816Z,957.63
2022-10-25T04:27:58.720Z,957.67
2022-10-25T04:30:59.692Z,957.7
2022-10-25T04:33:59.482Z,957.71
2022-10-25T04:36:59.003Z,957.73
2022-10-25T04:39:58.651Z,957.77
2022-10-25T04:42:59.097Z,957.77
2022-10-25T04:45:59.412Z,957.77
2022-10-25T04:48:59.647Z,957.79
2022-10-25T04:51:59.300Z,957.8
2022-10-25T04:54:59.574Z,957.91
2022-10-25T04:57:59.377Z,957.91
2022-10-25T05:01:00.332Z,957.89
2022-10-25T05:03:59.458Z,957.95
2022-10-25T05:06:59.181Z,957.98
2022-10-25T05:09:58.411Z,958.08
2022-10-25T05:12:59.087Z,958.01
2022-10-25T05:16:00.177Z,957.98
2022-10-25T05:18:58.971Z,957.99
2022-10-25T05:21:58.888Z,958.01
2022-10-25T05:24:59.002Z,958.1
2022-10-25T05:27:59.588Z,958.09
2022-10-25T05:30:59.084Z,958.13
2022-10-25T05:33:59.394Z,958.25
2022-10-25T05:36:58.817Z,958.11
2022-10-25T05:39:59.436Z,958.18
2022-10-25T05:42:58.867Z,958.18
2022-10-25T05:45:59.672Z,958.21
2022-10-25T05:48:58.894Z,958.21
2022-10-25T05:51:59.414Z,958.21
2022-10-25T05:54:58.909Z,958.24
2022-10-25T05:57:59.381Z,958.26
2022-10-25T06:00:59.430Z,958.29
2022-10-25T06:03:59.421Z,958.32
2022-10-25T06:06:59.415Z,958.27
2022-10-25T06:10:00.190Z,958.26
2022-10-25T06:12:58.916Z,958.29
2022-10-25T06:15:59.225Z,958.32
2022-10-25T06:18:59.676Z,958.24
2022-10-25T06:21:59.178Z,958.31
2022-10-25T06:24:59.198Z,958.32
2022-10-25T06:27:59.064Z,958.39
2022-10-25T06:30:59.142Z,958.39
2022-10-25T06:33:58.518Z,958.38
2022-10-25T06:36:58.962Z,958.38
2022-10-25T06:39:58.822Z,958.36
2022-10-25T06:42:59.029Z,958.59
2022-10-25T06:45:58.659Z,958.52
2022-10-25T06:48:58.811Z,958.48
2022-10-25T06:51:58.751Z,958.58
2022-10-25T06:54:59.587Z,958.6
2022-10-25T06:57:59.016Z,958.7
2022-10-25T07:00:59.680Z,958.7
2022-10-25T07:03:59.283Z,958.74
2022-10-25T07:06:58.669Z,958.84
2022-10-25T07:09:59.806Z,958.91
2022-10-25T07:12:59.088Z,958.96
2022-10-25T07:15:59.272Z,958.86
2022-10-25T07:18:59.485Z,958.92
2022-10-25T07:21:59.228Z,958.97
2022-10-25T07:24:59.087Z,958.97
2022-10-25T07:27:59.293Z,958.94
2022-10-25T07:30:59.791Z,959.01
2022-10-25T07:33:58.195Z,958.97
2022-10-25T07:36:59.373Z,958.96
2022-10-25T07:39:59.221Z,958.97
2022-10-25T07:42:58.982Z,959.1
2022-10-25T07:45:59.603Z,959.0
2022-10-25T07:48:58.402Z,958.94
2022-10-25T07:51:59.097Z,959.0
2022-10-25T07:54:59.114Z,959.03
2022-10-25T07:58:00.540Z,959.22
2022-10-25T08:01:17.050Z,959.11
2022-10-25T08:07:01.609Z,959.06
2022-10-25T08:10:02.775Z,959.13
2022-10-25T08:14:02.737Z,959.07
2022-10-25T08:19:56.244Z,959.17
2022-10-25T08:22:53.224Z,959.16
2022-10-25T08:26:30.149Z,959.12
2022-10-25T08:31:22.424Z,959.08
2022-10-25T08:49:40.828Z,959.14
2022-10-25T09:05:05.774Z,959.17
2022-10-25T09:15:56.182Z,959.23
2022-10-25T09:16:47.965Z,959.23
2022-10-25T09:21:13.550Z,959.24
2022-10-25T09:32:16.888Z,959.3
2022-10-25T09:45:17.779Z,959.36
2022-10-25T09:47:00.633Z,959.33
2022-10-25T09:52:12.302Z,959.38
2022-10-25T09:52:32.458Z,959.41
2022-10-25T09:55:16.459Z,959.39
2022-10-25T09:58:35.901Z,959.42
2022-10-25T10:00:59.804Z,959.47
2022-10-25T10:06:58.630Z,959.43
2022-10-25T10:09:59.682Z,959.5
2022-10-25T10:15:58.796Z,959.34
2022-10-25T10:18:58.988Z,959.34
2022-10-25T10:21:58.867Z,959.3
2022-10-25T10:27:58.665Z,959.28
2022-10-25T10:30:59.417Z,959.3
2022-10-25T10:33:58.682Z,959.3
2022-10-25T10:39:59.578Z,959.22
2022-10-25T10:42:59.269Z,959.22
2022-10-25T10:45:59.680Z,959.26
2022-10-25T10:48:59.534Z,959.27
2022-10-25T10:51:58.413Z,959.22
2022-10-25T10:54:59.177Z,959.24
2022-10-25T10:57:59.275Z,959.28
2022-10-25T11:00:59.019Z,959.28
2022-10-25T11:04:17.303Z,959.37
2022-10-25T11:06:58.762Z,959.28
2022-10-25T11:09:59.112Z,959.25
2022-10-25T11:12:59.025Z,959.26
2022-10-25T11:15:59.439Z,959.17
2022-10-25T11:18:58.718Z,959.21
2022-10-25T11:21:59.087Z,959.13
2022-10-25T11:24:59.447Z,959.16
2022-10-25T11:27:59.181Z,959.15
2022-10-25T11:30:59.263Z,959.09
2022-10-25T11:33:58.285Z,959.1
2022-10-25T11:36:59.464Z,959.06
2022-10-25T11:39:58.905Z,959.05
2022-10-25T11:42:58.919Z,959.04
2022-10-25T11:45:58.667Z,959.04
2022-10-25T11:48:59.063Z,959.01
2022-10-25T11:51:58.802Z,959.05
2022-10-25T11:54:59.475Z,958.96
2022-10-25T11:57:58.718Z,959.03
2022-10-25T12:00:58.860Z,958.91
2022-10-25T12:03:58.689Z,959.0
2022-10-25T12:06:58.773Z,959.02
2022-10-25T12:09:59.674Z,959.05
2022-10-25T12:12:58.906Z,958.98
2022-10-25T12:15:59.395Z,959.03
2022-10-25T12:18:59.143Z,959.1
2022-10-25T12:22:01.662Z,959.18
2022-10-25T12:24:58.260Z,959.08
2022-10-25T12:27:59.008Z,959.0
2022-10-25T12:30:59.348Z,959.03
2022-10-25T12:33:59.024Z,959.08
2022-10-25T12:36:58.715Z,958.95
2022-10-25T12:39:58.838Z,959.0
2022-10-25T12:42:59.493Z,958.97
2022-10-25T12:45:59.175Z,958.88
2022-10-25T12:48:58.854Z,958.92
2022-10-25T12:51:58.786Z,958.95
2022-10-25T12:54:59.157Z,958.88
2022-10-25T12:57:59.717Z,958.95
2022-10-25T13:00:59.647Z,958.93
2022-10-25T13:03:59.421Z,958.86
2022-10-25T13:06:58.999Z,958.81
2022-10-25T13:09:59.043Z,958.88
2022-10-25T13:12:58.428Z,958.84
2022-10-25T13:15:58.802Z,958.84
2022-10-25T13:18:58.398Z,958.81
2022-10-25T13:21:58.250Z,958.76
2022-10-25T13:24:59.074Z,958.73
2022-10-25T13:27:59.295Z,958.73
2022-10-25T13:30:59.493Z,958.57
2022-10-25T13:33:58.802Z,958.76
2022-10-25T13:36:59.085Z,958.67
2022-10-25T13:39:59.163Z,958.7
2022-10-25T13:42:58.637Z,958.66
2022-10-25T13:45:59.026Z,958.66
2022-10-25T13:48:59.010Z,958.62
2022-10-25T13:51:58.547Z,958.67
2022-10-25T13:54:58.921Z,958.62
2022-10-25T13:57:59.198Z,958.55
2022-10-25T14:00:59.854Z,958.6
2022-10-25T14:03:59.675Z,958.59
2022-10-25T14:06:58.845Z,958.63
2022-10-25T14:09:59.703Z,958.59
2022-10-25T14:12:59.972Z,958.55
2022-10-25T14:15:59.893Z,958.52
2022-10-25T14:18:59.644Z,958.64
2022-10-25T14:21:59.219Z,958.54
2022-10-25T14:24:59.303Z,958.57
2022-10-25T14:27:58.766Z,958.45
2022-10-25T14:30:59.697Z,958.42
2022-10-25T14:33:59.439Z,958.51
2022-10-25T14:36:59.208Z,958.48
2022-10-25T14:39:59.227Z,958.5
2022-10-25T14:42:59.201Z,958.56
2022-10-25T14:45:59.607Z,958.57
2022-10-25T14:48:59.666Z,958.5
2022-10-25T14:51:59.422Z,958.46
2022-10-25T14:54:59.194Z,958.47
2022-10-25T14:57:59.391Z,958.47
2022-10-25T15:00:59.099Z,958.43
2022-10-25T15:03:59.035Z,958.38
2022-10-25T15:06:58.659Z,958.36
2022-10-25T15:09:59.456Z,958.46
2022-10-25T15:12:58.884Z,958.35
2022-10-25T15:15:58.790Z,958.35
2022-10-25T15:18:58.813Z,958.33
2022-10-25T15:21:58.788Z,958.35
2022-10-25T15:24:58.729Z,958.32
2022-10-25T15:27:58.628Z,958.43
2022-10-25T15:30:59.123Z,958.4
2022-10-25T15:33:59.413Z,958.37
2022-10-25T15:36:59.533Z,958.35
2022-10-25T15:39:59.767Z,958.38
2022-10-25T15:42:59.388Z,958.28
2022-10-25T15:45:59.945Z,958.31
2022-10-25T15:48:59.454Z,958.34
2022-10-25T15:51:59.377Z,958.25
2022-10-25T15:54:58.216Z,958.26
2022-10-25T15:57:59.393Z,958.33
2022-10-25T16:01:00.445Z,958.36
2022-10-25T16:03:59.158Z,958.37
2022-10-25T16:06:59.463Z,958.36
2022-10-25T16:09:59.606Z,958.4
2022-10-25T16:12:59.985Z,958.39
2022-10-25T16:16:04.425Z,958.41
2022-10-25T16:19:01.242Z,958.36
2022-10-25T16:21:59.081Z,958.35
2022-10-25T16:24:59.156Z,958.35
2022-10-25T16:27:59.710Z,958.38
2022-10-25T16:30:59.370Z,958.38
2022-10-25T16:33:59.143Z,958.35
2022-10-25T16:36:59.509Z,958.39
2022-10-25T16:39:58.817Z,958.4
2022-10-25T16:42:59.654Z,958.38
2022-10-25T16:45:59.336Z,958.41
2022-10-25T16:49:01.869Z,958.37
2022-10-25T16:51:58.587Z,958.44
2022-10-25T16:54:59.133Z,958.48
2022-10-25T16:57:59.257Z,958.31
2022-10-25T17:01:00.601Z,958.41
2022-10-25T17:03:58.877Z,958.48
2022-10-25T17:06:58.337Z,958.38
2022-10-25T17:09:58.460Z,958.41
2022-10-25T17:12:59.238Z,958.38
2022-10-25T17:15:59.241Z,958.36
2022-10-25T17:18:58.297Z,958.37
2022-10-25T17:21:59.038Z,958.3
2022-10-25T17:24:59.121Z,958.33
2022-10-25T17:27:59.077Z,958.36
2022-10-25T17:30:59.230Z,958.3
2022-10-25T17:33:58.618Z,958.33
2022-10-25T17:36:58.521Z,958.33
2022-10-25T17:39:58.854Z,958.36
2022-10-25T17:42:59.210Z,958.2
2022-10-25T17:45:58.746Z,958.3
2022-10-25T17:48:58.878Z,958.35
2022-10-25T17:51:58.733Z,958.31
2022-10-25T17:54:58.572Z,958.26
2022-10-25T17:57:58.944Z,958.31
2022-10-25T18:01:25.905Z,958.36
2022-10-25T18:03:59.213Z,958.22
2022-10-25T18:06:59.063Z,958.26
2022-10-25T18:09:59.389Z,958.22
2022-10-25T18:12:58.530Z,958.19
2022-10-25T18:15:59.388Z,958.14
2022-10-25T18:18:58.373Z,958.15
2022-10-25T18:21:58.814Z,958.22
2022-10-25T18:24:59.084Z,958.14
2022-10-25T18:27:59.334Z,958.12
2022-10-25T18:30:58.724Z,958.15
2022-10-25T18:33:59.060Z,958.13
2022-10-25T18:36:58.705Z,958.13
2022-10-25T18:39:59.117Z,958.13
2022-10-25T18:42:59.035Z,958.13
2022-10-25T18:45:59.458Z,958.06
2022-10-25T18:48:58.963Z,958.08
2022-10-25T18:51:59.714Z,958.08
2022-10-25T18:54:58.786Z,958.06
2022-10-25T18:57:59.149Z,958.09
2022-10-25T19:00:58.987Z,958.04
2022-10-25T19:03:58.739Z,958.0
2022-10-25T19:06:58.666Z,957.98
2022-10-25T19:09:58.710Z,957.96
2022-10-25T19:12:58.855Z,957.87
2022-10-25T19:15:58.442Z,957.88
2022-10-25T19:18:59.604Z,957.87
2022-10-25T19:21:58.569Z,957.96
2022-10-25T19:24:59.401Z,957.91
2022-10-25T19:27:59.335Z,957.98
2022-10-25T19:30:59.507Z,958.0
2022-10-25T19:33:59.234Z,957.9
2022-10-25T19:36:58.600Z,957.9
2022-10-25T19:39:59.126Z,957.91
2022-10-25T19:42:58.529Z,957.87
2022-10-25T19:45:58.836Z,957.88
2022-10-25T19:48:59.616Z,957.94
2022-10-25T19:51:59.099Z,957.84
2022-10-25T19:54:59.050Z,957.75
2022-10-25T19:57:59.823Z,957.75
2022-10-25T20:00:59.549Z,957.78
2022-10-25T20:03:59.021Z,957.71
2022-10-25T20:06:58.794Z,957.72
2022-10-25T20:09:59.320Z,957.72
2022-10-25T20:12:58.520Z,957.68
2022-10-25T20:15:59.557Z,957.69
2022-10-25T20:18:58.720Z,957.75
2022-10-25T20:21:59.599Z,957.65
2022-10-25T20:24:59.595Z,957.72
2022-10-25T20:27:58.552Z,957.78
2022-10-25T20:30:59.282Z,957.75
2022-10-25T20:33:59.189Z,957.71
2022-10-25T20:36:59.639Z,957.71
2022-10-25T20:39:58.666Z,957.75
2022-10-25T20:42:59.180Z,957.72
2022-10-25T20:45:59.443Z,957.75
2022-10-25T20:48:58.384Z,957.75
2022-10-25T20:51:58.275Z,957.72
2022-10-25T20:54:59.044Z,957.77
2022-10-25T20:57:58.674Z,957.78
2022-10-25T21:00:59.211Z,957.71
2022-10-25T21:03:59.013Z,957.69
2022-10-25T21:06:58.974Z,957.69
2022-10-25T21:09:59.152Z,957.69
2022-10-25T21:12:59.246Z,957.62
2022-10-25T21:15:59.809Z,957.66
2022-10-25T21:18:58.931Z,957.6
2022-10-25T21:21:58.884Z,957.63
2022-10-25T21:24:59.161Z,957.58
2022-10-25T21:27:58.839Z,957.62
2022-10-25T21:30:58.819Z,957.62
2022-10-25T21:33:59.609Z,957.56
2022-10-25T21:36:58.872Z,957.42
2022-10-25T21:39:58.677Z,957.4
2022-10-25T21:42:58.540Z,957.42
2022-10-25T21:46:00.033Z,957.46
2022-10-25T21:48:59.337Z,957.43
2022-10-25T21:51:58.959Z,957.42
2022-10-25T21:54:58.435Z,957.34
2022-10-25T21:57:59.921Z,957.32
2022-10-25T22:00:59.548Z,957.22
2022-10-25T22:03:58.933Z,957.19
2022-10-25T22:06:59.153Z,957.08
2022-10-25T22:09:59.045Z,957.07
2022-10-25T22:12:58.750Z,957.11
2022-10-25T22:15:58.945Z,957.19
2022-10-25T22:18:59.049Z,957.2
2022-10-25T22:21:58.176Z,957.17
2022-10-25T22:24:58.974Z,957.17
2022-10-25T22:27:58.804Z,957.08
2022-10-25T22:30:58.770Z,957.17
2022-10-25T22:33:58.708Z,957.26
2022-10-25T22:36:59.497Z,957.2
2022-10-25T22:39:59.584Z,957.24
2022-10-25T22:42:58.899Z,957.17
2022-10-25T22:45:58.849Z,957.11
2022-10-25T22:48:59.149Z,957.17
2022-10-25T22:51:58.550Z,956.98
2022-10-25T22:54:58.621Z,957.02
2022-10-25T22:57:58.631Z,956.98
2022-10-25T23:00:58.842Z,957.01
2022-10-25T23:03:59.424Z,957.05
2022-10-25T23:06:59.345Z,957.14
2022-10-25T23:09:58.751Z,957.05
2022-10-25T23:12:58.791Z,956.97
2022-10-25T23:15:58.752Z,957.02
2022-10-25T23:18:59.096Z,956.89
2022-10-25T23:21:59.294Z,956.89
2022-10-25T23:24:58.683Z,956.73
2022-10-25T23:27:59.095Z,956.66
2022-10-25T23:30:58.866Z,956.62
2022-10-25T23:33:59.265Z,956.72
2022-10-25T23:36:59.159Z,956.74
2022-10-25T23:39:58.919Z,956.61
2022-10-25T23:42:58.877Z,956.65
2022-10-25T23:45:58.859Z,956.53
2022-10-25T23:48:58.725Z,956.51
2022-10-25T23:51:59.568Z,956.46
2022-10-25T23:54:58.708Z,956.45
2022-10-25T23:57:58.544Z,956.44
